sensor_id;sensor_type;location;lat;lon;timestamp;temperature;humidity
14122;DHT22;7139;48.114;11.442;2022-07-12T00:00:45;16.60;99.90
14122;DHT22;7139;48.114;11.442;2022-07-12T00:03:12;16.60;99.90
14122;DHT22;7139;48.114;11.442;2022-07-12T00:05:40;16.60;99.90
14122;DHT22;7139;48.114;11.442;2022-07-12T00:08:07;16.50;99.90
14122;DHT22;7139;48.114;11.442;2022-07-12T00:10:33;16.50;99.90
14122;DHT22;7139;48.114;11.442;2022-07-12T00:13:01;16.50;99.90
14122;DHT22;7139;48.114;11.442;2022-07-12T00:15:28;16.50;99.90
14122;DHT22;7139;48.114;11.442;2022-07-12T00:17:54;16.50;99.90
14122;DHT22;7139;48.114;11.442;2022-07-12T00:20:21;16.40;99.90
14122;DHT22;7139;48.114;11.442;2022-07-12T00:22:49;16.40;99.90
14122;DHT22;7139;48.114;11.442;2022-07-12T00:25:16;16.40;99.90
14122;DHT22;7139;48.114;11.442;2022-07-12T00:27:43;16.40;99.90
14122;DHT22;7139;48.114;11.442;2022-07-12T00:30:10;16.40;99.90
14122;DHT22;7139;48.114;11.442;2022-07-12T00:32:37;16.30;99.90
14122;DHT22;7139;48.114;11.442;2022-07-12T00:35:05;16.30;99.90
14122;DHT22;7139;48.114;11.442;2022-07-12T00:37:32;16.30;99.90
14122;DHT22;7139;48.114;11.442;2022-07-12T00:40:00;16.30;99.90
14122;DHT22;7139;48.114;11.442;2022-07-12T00:42:27;16.30;99.90
14122;DHT22;7139;48.114;11.442;2022-07-12T00:44:54;16.30;99.90
14122;DHT22;7139;48.114;11.442;2022-07-12T00:47:32;16.30;99.90
14122;DHT22;7139;48.114;11.442;2022-07-12T00:50:03;16.30;99.90
14122;DHT22;7139;48.114;11.442;2022-07-12T00:52:30;16.30;99.90
14122;DHT22;7139;48.114;11.442;2022-07-12T00:54:56;16.20;99.90
14122;DHT22;7139;48.114;11.442;2022-07-12T00:57:25;16.20;99.90
14122;DHT22;7139;48.114;11.442;2022-07-12T00:59:52;16.20;99.90
14122;DHT22;7139;48.114;11.442;2022-07-12T01:02:18;16.20;99.90
14122;DHT22;7139;48.114;11.442;2022-07-12T01:04:45;16.20;99.90
14122;DHT22;7139;48.114;11.442;2022-07-12T01:07:12;16.20;99.90
14122;DHT22;7139;48.114;11.442;2022-07-12T01:09:40;16.20;99.90
14122;DHT22;7139;48.114;11.442;2022-07-12T01:12:08;16.10;99.90
14122;DHT22;7139;48.114;11.442;2022-07-12T01:14:37;16.10;99.90
14122;DHT22;7139;48.114;11.442;2022-07-12T01:17:06;16.00;99.90
14122;DHT22;7139;48.114;11.442;2022-07-12T01:19:34;16.00;99.90
14122;DHT22;7139;48.114;11.442;2022-07-12T01:22:06;16.00;99.90
14122;DHT22;7139;48.114;11.442;2022-07-12T01:24:36;16.00;99.90
14122;DHT22;7139;48.114;11.442;2022-07-12T01:27:04;15.90;99.90
14122;DHT22;7139;48.114;11.442;2022-07-12T01:29:31;15.90;99.90
14122;DHT22;7139;48.114;11.442;2022-07-12T01:31:59;15.90;99.90
14122;DHT22;7139;48.114;11.442;2022-07-12T01:34:48;15.80;99.90
14122;DHT22;7139;48.114;11.442;2022-07-12T01:37:16;15.80;99.90
14122;DHT22;7139;48.114;11.442;2022-07-12T01:39:45;15.70;99.90
14122;DHT22;7139;48.114;11.442;2022-07-12T01:42:13;15.70;99.90
14122;DHT22;7139;48.114;11.442;2022-07-12T01:44:40;15.70;99.90
14122;DHT22;7139;48.114;11.442;2022-07-12T01:47:07;15.60;99.90
14122;DHT22;7139;48.114;11.442;2022-07-12T01:49:34;15.60;99.90
14122;DHT22;7139;48.114;11.442;2022-07-12T01:52:01;15.50;99.90
14122;DHT22;7139;48.114;11.442;2022-07-12T01:54:28;15.50;99.90
14122;DHT22;7139;48.114;11.442;2022-07-12T01:56:56;15.50;99.90
14122;DHT22;7139;48.114;11.442;2022-07-12T01:59:23;15.40;99.90
14122;DHT22;7139;48.114;11.442;2022-07-12T02:01:50;15.40;99.90
14122;DHT22;7139;48.114;11.442;2022-07-12T02:04:17;15.40;99.90
14122;DHT22;7139;48.114;11.442;2022-07-12T02:06:45;15.30;99.90
14122;DHT22;7139;48.114;11.442;2022-07-12T02:09:12;15.30;99.90
14122;DHT22;7139;48.114;11.442;2022-07-12T02:11:39;15.30;99.90
14122;DHT22;7139;48.114;11.442;2022-07-12T02:14:07;15.20;99.90
14122;DHT22;7139;48.114;11.442;2022-07-12T02:16:34;15.20;99.90
14122;DHT22;7139;48.114;11.442;2022-07-12T02:19:02;15.20;99.90
14122;DHT22;7139;48.114;11.442;2022-07-12T02:21:29;15.20;99.90
14122;DHT22;7139;48.114;11.442;2022-07-12T02:23:55;15.20;99.90
14122;DHT22;7139;48.114;11.442;2022-07-12T02:26:22;15.10;99.90
14122;DHT22;7139;48.114;11.442;2022-07-12T02:28:49;15.10;99.90
14122;DHT22;7139;48.114;11.442;2022-07-12T02:31:17;15.00;99.90
14122;DHT22;7139;48.114;11.442;2022-07-12T02:33:44;15.00;99.90
14122;DHT22;7139;48.114;11.442;2022-07-12T02:36:11;14.90;99.90
14122;DHT22;7139;48.114;11.442;2022-07-12T02:38:38;14.90;99.90
14122;DHT22;7139;48.114;11.442;2022-07-12T02:41:05;14.90;99.90
14122;DHT22;7139;48.114;11.442;2022-07-12T02:43:31;14.90;99.90
14122;DHT22;7139;48.114;11.442;2022-07-12T02:46:04;14.90;99.90
14122;DHT22;7139;48.114;11.442;2022-07-12T02:48:33;14.80;99.90
14122;DHT22;7139;48.114;11.442;2022-07-12T02:51:00;14.70;99.90
14122;DHT22;7139;48.114;11.442;2022-07-12T02:53:27;14.70;99.90
14122;DHT22;7139;48.114;11.442;2022-07-12T02:55:54;14.70;99.90
14122;DHT22;7139;48.114;11.442;2022-07-12T02:58:21;14.70;99.90
14122;DHT22;7139;48.114;11.442;2022-07-12T03:00:48;14.70;99.90
14122;DHT22;7139;48.114;11.442;2022-07-12T03:03:15;14.60;99.90
14122;DHT22;7139;48.114;11.442;2022-07-12T03:05:43;14.60;99.90
14122;DHT22;7139;48.114;11.442;2022-07-12T03:08:11;14.60;99.90
14122;DHT22;7139;48.114;11.442;2022-07-12T03:10:39;14.60;99.90
14122;DHT22;7139;48.114;11.442;2022-07-12T03:13:06;14.60;99.90
14122;DHT22;7139;48.114;11.442;2022-07-12T03:15:33;14.60;99.90
14122;DHT22;7139;48.114;11.442;2022-07-12T03:18:00;14.50;99.90
14122;DHT22;7139;48.114;11.442;2022-07-12T03:20:28;14.50;99.90
14122;DHT22;7139;48.114;11.442;2022-07-12T03:22:56;14.50;99.90
14122;DHT22;7139;48.114;11.442;2022-07-12T03:25:24;14.40;99.90
14122;DHT22;7139;48.114;11.442;2022-07-12T03:27:51;14.40;99.90
14122;DHT22;7139;48.114;11.442;2022-07-12T03:30:18;14.40;99.90
14122;DHT22;7139;48.114;11.442;2022-07-12T03:32:44;14.30;99.90
14122;DHT22;7139;48.114;11.442;2022-07-12T03:35:11;14.30;99.90
14122;DHT22;7139;48.114;11.442;2022-07-12T03:37:41;14.30;99.90
14122;DHT22;7139;48.114;11.442;2022-07-12T03:40:10;14.30;99.90
14122;DHT22;7139;48.114;11.442;2022-07-12T03:42:37;14.20;99.90
14122;DHT22;7139;48.114;11.442;2022-07-12T03:45:05;14.20;99.90
14122;DHT22;7139;48.114;11.442;2022-07-12T03:47:32;14.20;99.90
14122;DHT22;7139;48.114;11.442;2022-07-12T03:50:00;14.20;99.90
14122;DHT22;7139;48.114;11.442;2022-07-12T03:52:27;14.10;99.90
14122;DHT22;7139;48.114;11.442;2022-07-12T03:54:54;14.20;99.90
14122;DHT22;7139;48.114;11.442;2022-07-12T03:57:22;14.10;99.90
14122;DHT22;7139;48.114;11.442;2022-07-12T03:59:50;14.10;99.90
14122;DHT22;7139;48.114;11.442;2022-07-12T04:02:16;14.10;99.90
14122;DHT22;7139;48.114;11.442;2022-07-12T04:04:43;14.10;99.90
14122;DHT22;7139;48.114;11.442;2022-07-12T04:07:10;14.10;99.90
14122;DHT22;7139;48.114;11.442;2022-07-12T04:09:37;14.10;99.90
14122;DHT22;7139;48.114;11.442;2022-07-12T04:12:05;14.10;99.90
14122;DHT22;7139;48.114;11.442;2022-07-12T04:14:33;14.10;99.90
14122;DHT22;7139;48.114;11.442;2022-07-12T04:17:00;14.10;99.90
14122;DHT22;7139;48.114;11.442;2022-07-12T04:19:27;14.10;99.90
14122;DHT22;7139;48.114;11.442;2022-07-12T04:21:54;14.10;99.90
14122;DHT22;7139;48.114;11.442;2022-07-12T04:24:21;14.10;99.90
14122;DHT22;7139;48.114;11.442;2022-07-12T04:26:48;14.10;99.90
14122;DHT22;7139;48.114;11.442;2022-07-12T04:29:15;14.10;99.90
14122;DHT22;7139;48.114;11.442;2022-07-12T04:31:43;14.10;99.90
14122;DHT22;7139;48.114;11.442;2022-07-12T04:34:10;14.10;99.90
14122;DHT22;7139;48.114;11.442;2022-07-12T04:36:36;14.10;99.90
14122;DHT22;7139;48.114;11.442;2022-07-12T04:39:03;14.10;99.90
14122;DHT22;7139;48.114;11.442;2022-07-12T04:41:30;14.10;99.90
14122;DHT22;7139;48.114;11.442;2022-07-12T04:43:57;14.10;99.90
14122;DHT22;7139;48.114;11.442;2022-07-12T04:46:24;14.10;99.90
14122;DHT22;7139;48.114;11.442;2022-07-12T04:48:52;14.20;99.90
14122;DHT22;7139;48.114;11.442;2022-07-12T04:51:18;14.20;99.90
14122;DHT22;7139;48.114;11.442;2022-07-12T04:53:45;14.20;99.90
14122;DHT22;7139;48.114;11.442;2022-07-12T04:56:12;14.30;99.90
14122;DHT22;7139;48.114;11.442;2022-07-12T04:58:39;14.30;99.90
14122;DHT22;7139;48.114;11.442;2022-07-12T05:01:05;14.40;99.90
14122;DHT22;7139;48.114;11.442;2022-07-12T05:03:32;14.40;99.90
14122;DHT22;7139;48.114;11.442;2022-07-12T05:06:00;14.40;99.90
14122;DHT22;7139;48.114;11.442;2022-07-12T05:08:27;14.50;99.90
14122;DHT22;7139;48.114;11.442;2022-07-12T05:10:54;14.50;99.90
14122;DHT22;7139;48.114;11.442;2022-07-12T05:13:21;14.60;99.90
14122;DHT22;7139;48.114;11.442;2022-07-12T05:15:48;14.60;99.90
14122;DHT22;7139;48.114;11.442;2022-07-12T05:18:15;14.60;99.90
14122;DHT22;7139;48.114;11.442;2022-07-12T05:20:41;14.60;99.90
14122;DHT22;7139;48.114;11.442;2022-07-12T05:23:09;14.70;99.90
14122;DHT22;7139;48.114;11.442;2022-07-12T05:25:36;14.70;99.90
14122;DHT22;7139;48.114;11.442;2022-07-12T05:28:03;14.80;99.90
14122;DHT22;7139;48.114;11.442;2022-07-12T05:30:30;14.80;99.90
14122;DHT22;7139;48.114;11.442;2022-07-12T05:32:57;14.90;99.90
14122;DHT22;7139;48.114;11.442;2022-07-12T05:35:23;14.90;99.90
14122;DHT22;7139;48.114;11.442;2022-07-12T05:37:50;15.00;99.90
14122;DHT22;7139;48.114;11.442;2022-07-12T05:40:19;15.00;99.90
14122;DHT22;7139;48.114;11.442;2022-07-12T05:42:45;15.00;99.90
14122;DHT22;7139;48.114;11.442;2022-07-12T05:45:12;15.10;99.90
14122;DHT22;7139;48.114;11.442;2022-07-12T05:47:39;15.10;99.90
14122;DHT22;7139;48.114;11.442;2022-07-12T05:50:06;15.20;99.90
14122;DHT22;7139;48.114;11.442;2022-07-12T05:52:33;15.20;99.90
14122;DHT22;7139;48.114;11.442;2022-07-12T05:55:19;15.20;99.90
14122;DHT22;7139;48.114;11.442;2022-07-12T05:57:46;15.30;99.90
14122;DHT22;7139;48.114;11.442;2022-07-12T06:00:13;15.30;99.90
14122;DHT22;7139;48.114;11.442;2022-07-12T06:02:41;15.40;99.90
14122;DHT22;7139;48.114;11.442;2022-07-12T06:05:08;15.40;99.90
14122;DHT22;7139;48.114;11.442;2022-07-12T06:07:35;15.50;99.90
14122;DHT22;7139;48.114;11.442;2022-07-12T06:10:02;15.60;99.90
14122;DHT22;7139;48.114;11.442;2022-07-12T06:12:30;15.70;99.90
14122;DHT22;7139;48.114;11.442;2022-07-12T06:14:57;15.70;99.90
14122;DHT22;7139;48.114;11.442;2022-07-12T06:17:23;15.80;99.90
14122;DHT22;7139;48.114;11.442;2022-07-12T06:19:50;15.90;99.90
14122;DHT22;7139;48.114;11.442;2022-07-12T06:22:18;15.90;99.90
14122;DHT22;7139;48.114;11.442;2022-07-12T06:24:46;16.00;99.90
14122;DHT22;7139;48.114;11.442;2022-07-12T06:27:13;16.10;99.90
14122;DHT22;7139;48.114;11.442;2022-07-12T06:29:41;16.10;99.90
14122;DHT22;7139;48.114;11.442;2022-07-12T06:32:13;16.20;99.90
14122;DHT22;7139;48.114;11.442;2022-07-12T06:34:40;16.20;99.90
14122;DHT22;7139;48.114;11.442;2022-07-12T06:37:06;16.30;99.90
14122;DHT22;7139;48.114;11.442;2022-07-12T06:39:34;16.30;99.90
14122;DHT22;7139;48.114;11.442;2022-07-12T06:42:01;16.40;99.90
14122;DHT22;7139;48.114;11.442;2022-07-12T06:44:29;16.40;99.90
14122;DHT22;7139;48.114;11.442;2022-07-12T06:46:57;16.50;99.90
14122;DHT22;7139;48.114;11.442;2022-07-12T06:49:25;16.50;99.90
14122;DHT22;7139;48.114;11.442;2022-07-12T06:51:52;16.50;99.90
14122;DHT22;7139;48.114;11.442;2022-07-12T06:54:19;16.60;99.90
14122;DHT22;7139;48.114;11.442;2022-07-12T06:56:45;16.60;99.90
14122;DHT22;7139;48.114;11.442;2022-07-12T06:59:12;16.80;99.90
14122;DHT22;7139;48.114;11.442;2022-07-12T07:01:39;16.90;99.90
14122;DHT22;7139;48.114;11.442;2022-07-12T07:04:08;16.90;99.90
14122;DHT22;7139;48.114;11.442;2022-07-12T07:06:34;17.00;99.90
14122;DHT22;7139;48.114;11.442;2022-07-12T07:09:01;17.10;99.90
14122;DHT22;7139;48.114;11.442;2022-07-12T07:11:32;17.20;99.90
14122;DHT22;7139;48.114;11.442;2022-07-12T07:13:59;17.30;99.90
14122;DHT22;7139;48.114;11.442;2022-07-12T07:16:26;17.50;99.90
14122;DHT22;7139;48.114;11.442;2022-07-12T07:18:52;17.60;99.90
14122;DHT22;7139;48.114;11.442;2022-07-12T07:21:21;17.60;99.90
14122;DHT22;7139;48.114;11.442;2022-07-12T07:23:47;17.70;99.90
14122;DHT22;7139;48.114;11.442;2022-07-12T07:26:14;17.90;99.90
14122;DHT22;7139;48.114;11.442;2022-07-12T07:28:41;18.00;99.90
14122;DHT22;7139;48.114;11.442;2022-07-12T07:31:22;18.00;99.90
14122;DHT22;7139;48.114;11.442;2022-07-12T07:33:49;18.20;99.90
14122;DHT22;7139;48.114;11.442;2022-07-12T07:36:15;18.30;99.90
14122;DHT22;7139;48.114;11.442;2022-07-12T07:38:44;18.50;99.90
14122;DHT22;7139;48.114;11.442;2022-07-12T07:41:10;18.60;99.90
14122;DHT22;7139;48.114;11.442;2022-07-12T07:43:37;18.80;99.90
14122;DHT22;7139;48.114;11.442;2022-07-12T07:46:04;18.90;99.90
14122;DHT22;7139;48.114;11.442;2022-07-12T07:48:31;19.10;99.90
14122;DHT22;7139;48.114;11.442;2022-07-12T07:50:58;19.20;99.90
14122;DHT22;7139;48.114;11.442;2022-07-12T07:53:24;19.40;99.90
14122;DHT22;7139;48.114;11.442;2022-07-12T07:55:52;19.50;99.90
14122;DHT22;7139;48.114;11.442;2022-07-12T07:58:19;19.70;99.80
14122;DHT22;7139;48.114;11.442;2022-07-12T08:00:49;19.80;99.90
14122;DHT22;7139;48.114;11.442;2022-07-12T08:03:16;20.00;99.90
14122;DHT22;7139;48.114;11.442;2022-07-12T08:05:42;20.10;98.80
14122;DHT22;7139;48.114;11.442;2022-07-12T08:08:09;20.30;99.10
14122;DHT22;7139;48.114;11.442;2022-07-12T08:10:36;20.40;98.40
14122;DHT22;7139;48.114;11.442;2022-07-12T08:13:04;20.50;97.80
14122;DHT22;7139;48.114;11.442;2022-07-12T08:15:31;20.40;96.80
14122;DHT22;7139;48.114;11.442;2022-07-12T08:17:58;20.20;96.90
14122;DHT22;7139;48.114;11.442;2022-07-12T08:20:25;20.10;96.50
14122;DHT22;7139;48.114;11.442;2022-07-12T08:22:52;20.00;97.10
14122;DHT22;7139;48.114;11.442;2022-07-12T08:25:18;20.10;98.20
14122;DHT22;7139;48.114;11.442;2022-07-12T08:27:45;20.30;97.00
14122;DHT22;7139;48.114;11.442;2022-07-12T08:30:13;20.20;96.90
14122;DHT22;7139;48.114;11.442;2022-07-12T08:32:43;20.40;97.70
14122;DHT22;7139;48.114;11.442;2022-07-12T08:35:10;20.60;97.40
14122;DHT22;7139;48.114;11.442;2022-07-12T08:37:37;20.70;95.80
14122;DHT22;7139;48.114;11.442;2022-07-12T08:40:05;20.50;95.10
14122;DHT22;7139;48.114;11.442;2022-07-12T08:42:32;20.50;95.60
14122;DHT22;7139;48.114;11.442;2022-07-12T08:44:59;20.50;95.40
14122;DHT22;7139;48.114;11.442;2022-07-12T08:47:27;20.50;96.10
14122;DHT22;7139;48.114;11.442;2022-07-12T08:50:14;20.60;94.80
14122;DHT22;7139;48.114;11.442;2022-07-12T08:52:43;20.80;95.10
14122;DHT22;7139;48.114;11.442;2022-07-12T08:55:22;21.20;96.00
14122;DHT22;7139;48.114;11.442;2022-07-12T08:57:51;21.50;95.10
14122;DHT22;7139;48.114;11.442;2022-07-12T09:00:18;21.70;93.80
14122;DHT22;7139;48.114;11.442;2022-07-12T09:02:50;21.40;92.00
14122;DHT22;7139;48.114;11.442;2022-07-12T09:05:19;21.30;93.40
14122;DHT22;7139;48.114;11.442;2022-07-12T09:07:46;21.30;92.30
14122;DHT22;7139;48.114;11.442;2022-07-12T09:10:13;21.40;93.00
14122;DHT22;7139;48.114;11.442;2022-07-12T09:12:41;21.50;93.10
14122;DHT22;7139;48.114;11.442;2022-07-12T09:15:16;21.60;92.90
14122;DHT22;7139;48.114;11.442;2022-07-12T09:17:55;21.50;93.00
14122;DHT22;7139;48.114;11.442;2022-07-12T09:20:24;21.60;93.50
14122;DHT22;7139;48.114;11.442;2022-07-12T09:22:52;22.00;93.80
14122;DHT22;7139;48.114;11.442;2022-07-12T09:25:20;22.20;92.80
14122;DHT22;7139;48.114;11.442;2022-07-12T09:27:53;22.20;91.90
14122;DHT22;7139;48.114;11.442;2022-07-12T09:30:21;22.20;91.90
14122;DHT22;7139;48.114;11.442;2022-07-12T09:32:50;22.00;91.10
14122;DHT22;7139;48.114;11.442;2022-07-12T09:35:35;21.90;91.30
14122;DHT22;7139;48.114;11.442;2022-07-12T09:38:20;21.80;91.50
14122;DHT22;7139;48.114;11.442;2022-07-12T09:40:47;21.70;91.40
14122;DHT22;7139;48.114;11.442;2022-07-12T09:43:14;21.50;91.30
14122;DHT22;7139;48.114;11.442;2022-07-12T09:45:42;21.40;91.20
14122;DHT22;7139;48.114;11.442;2022-07-12T09:48:10;21.40;91.80
14122;DHT22;7139;48.114;11.442;2022-07-12T09:50:39;21.40;92.20
14122;DHT22;7139;48.114;11.442;2022-07-12T09:53:07;21.40;92.00
14122;DHT22;7139;48.114;11.442;2022-07-12T09:55:37;21.40;92.10
14122;DHT22;7139;48.114;11.442;2022-07-12T09:58:07;21.30;91.60
14122;DHT22;7139;48.114;11.442;2022-07-12T10:00:35;21.40;92.30
14122;DHT22;7139;48.114;11.442;2022-07-12T10:03:03;21.70;92.40
14122;DHT22;7139;48.114;11.442;2022-07-12T10:05:30;21.80;91.30
14122;DHT22;7139;48.114;11.442;2022-07-12T10:07:59;21.90;90.90
14122;DHT22;7139;48.114;11.442;2022-07-12T10:10:27;22.10;91.40
14122;DHT22;7139;48.114;11.442;2022-07-12T10:12:55;22.20;91.50
14122;DHT22;7139;48.114;11.442;2022-07-12T10:15:22;22.30;90.80
14122;DHT22;7139;48.114;11.442;2022-07-12T10:17:54;22.50;91.00
14122;DHT22;7139;48.114;11.442;2022-07-12T10:20:23;22.60;91.80
14122;DHT22;7139;48.114;11.442;2022-07-12T10:22:52;22.80;90.80
14122;DHT22;7139;48.114;11.442;2022-07-12T10:25:30;23.00;90.70
14122;DHT22;7139;48.114;11.442;2022-07-12T10:27:58;22.80;89.70
14122;DHT22;7139;48.114;11.442;2022-07-12T10:30:25;22.70;90.80
14122;DHT22;7139;48.114;11.442;2022-07-12T10:32:54;22.50;90.40
14122;DHT22;7139;48.114;11.442;2022-07-12T10:35:25;22.30;90.50
14122;DHT22;7139;48.114;11.442;2022-07-12T10:38:14;22.30;90.80
14122;DHT22;7139;48.114;11.442;2022-07-12T10:40:43;22.20;90.70
14122;DHT22;7139;48.114;11.442;2022-07-12T10:43:18;22.40;91.30
14122;DHT22;7139;48.114;11.442;2022-07-12T10:45:47;22.60;90.70
14122;DHT22;7139;48.114;11.442;2022-07-12T10:48:23;22.60;91.00
14122;DHT22;7139;48.114;11.442;2022-07-12T10:50:51;22.70;91.30
14122;DHT22;7139;48.114;11.442;2022-07-12T10:53:28;22.90;91.10
14122;DHT22;7139;48.114;11.442;2022-07-12T10:56:13;22.80;90.10
14122;DHT22;7139;48.114;11.442;2022-07-12T10:58:42;23.00;91.00
14122;DHT22;7139;48.114;11.442;2022-07-12T11:01:11;23.30;90.50
14122;DHT22;7139;48.114;11.442;2022-07-12T11:03:39;23.50;89.60
14122;DHT22;7139;48.114;11.442;2022-07-12T11:06:08;23.50;87.90
14122;DHT22;7139;48.114;11.442;2022-07-12T11:08:55;23.20;88.90
14122;DHT22;7139;48.114;11.442;2022-07-12T11:11:25;23.00;90.00
14122;DHT22;7139;48.114;11.442;2022-07-12T11:13:53;22.70;89.00
14122;DHT22;7139;48.114;11.442;2022-07-12T11:16:20;22.90;90.80
14122;DHT22;7139;48.114;11.442;2022-07-12T11:18:47;22.90;89.40
14122;DHT22;7139;48.114;11.442;2022-07-12T11:21:14;22.70;87.80
14122;DHT22;7139;48.114;11.442;2022-07-12T11:23:41;22.60;90.10
14122;DHT22;7139;48.114;11.442;2022-07-12T11:26:10;22.60;90.10
14122;DHT22;7139;48.114;11.442;2022-07-12T11:28:39;23.00;90.40
14122;DHT22;7139;48.114;11.442;2022-07-12T11:31:08;23.20;88.60
14122;DHT22;7139;48.114;11.442;2022-07-12T11:33:37;23.40;87.60
14122;DHT22;7139;48.114;11.442;2022-07-12T11:36:06;23.60;84.90
14122;DHT22;7139;48.114;11.442;2022-07-12T11:38:33;23.50;84.20
14122;DHT22;7139;48.114;11.442;2022-07-12T11:41:02;23.40;85.50
14122;DHT22;7139;48.114;11.442;2022-07-12T11:43:30;23.40;86.60
14122;DHT22;7139;48.114;11.442;2022-07-12T11:45:58;23.50;86.20
14122;DHT22;7139;48.114;11.442;2022-07-12T11:48:26;23.40;85.40
14122;DHT22;7139;48.114;11.442;2022-07-12T11:50:54;23.40;87.70
14122;DHT22;7139;48.114;11.442;2022-07-12T11:53:22;23.70;86.90
14122;DHT22;7139;48.114;11.442;2022-07-12T11:55:50;23.90;86.20
14122;DHT22;7139;48.114;11.442;2022-07-12T11:58:18;24.00;84.00
14122;DHT22;7139;48.114;11.442;2022-07-12T12:00:46;24.20;82.50
14122;DHT22;7139;48.114;11.442;2022-07-12T12:03:15;24.20;82.00
14122;DHT22;7139;48.114;11.442;2022-07-12T12:05:43;24.30;82.80
14122;DHT22;7139;48.114;11.442;2022-07-12T12:08:11;24.60;82.40
14122;DHT22;7139;48.114;11.442;2022-07-12T12:10:38;24.90;82.50
14122;DHT22;7139;48.114;11.442;2022-07-12T12:13:12;25.10;79.90
14122;DHT22;7139;48.114;11.442;2022-07-12T12:15:39;25.00;78.60
14122;DHT22;7139;48.114;11.442;2022-07-12T12:18:07;25.10;78.00
14122;DHT22;7139;48.114;11.442;2022-07-12T12:20:36;25.00;78.50
14122;DHT22;7139;48.114;11.442;2022-07-12T12:23:05;25.00;79.10
14122;DHT22;7139;48.114;11.442;2022-07-12T12:25:33;24.90;79.30
14122;DHT22;7139;48.114;11.442;2022-07-12T12:28:01;25.00;80.50
14122;DHT22;7139;48.114;11.442;2022-07-12T12:30:29;25.00;78.50
14122;DHT22;7139;48.114;11.442;2022-07-12T12:32:58;25.00;77.70
14122;DHT22;7139;48.114;11.442;2022-07-12T12:35:31;24.70;78.90
14122;DHT22;7139;48.114;11.442;2022-07-12T12:38:02;24.70;78.60
14122;DHT22;7139;48.114;11.442;2022-07-12T12:40:31;24.80;79.30
14122;DHT22;7139;48.114;11.442;2022-07-12T12:43:08;25.10;78.00
14122;DHT22;7139;48.114;11.442;2022-07-12T12:45:44;25.20;78.80
14122;DHT22;7139;48.114;11.442;2022-07-12T12:48:18;25.40;78.20
14122;DHT22;7139;48.114;11.442;2022-07-12T12:50:46;25.40;75.80
14122;DHT22;7139;48.114;11.442;2022-07-12T12:53:17;25.60;77.30
14122;DHT22;7139;48.114;11.442;2022-07-12T12:55:45;25.70;74.50
14122;DHT22;7139;48.114;11.442;2022-07-12T12:58:13;25.60;75.00
14122;DHT22;7139;48.114;11.442;2022-07-12T13:00:41;25.70;75.40
14122;DHT22;7139;48.114;11.442;2022-07-12T13:03:10;25.80;76.00
14122;DHT22;7139;48.114;11.442;2022-07-12T13:05:37;26.00;76.10
14122;DHT22;7139;48.114;11.442;2022-07-12T13:08:05;26.00;75.50
14122;DHT22;7139;48.114;11.442;2022-07-12T13:10:34;25.90;75.50
14122;DHT22;7139;48.114;11.442;2022-07-12T13:13:02;26.00;76.10
14122;DHT22;7139;48.114;11.442;2022-07-12T13:15:30;26.00;73.60
14122;DHT22;7139;48.114;11.442;2022-07-12T13:17:57;25.90;75.80
14122;DHT22;7139;48.114;11.442;2022-07-12T13:20:25;25.90;73.00
14122;DHT22;7139;48.114;11.442;2022-07-12T13:22:52;25.80;74.00
14122;DHT22;7139;48.114;11.442;2022-07-12T13:25:19;25.90;73.40
14122;DHT22;7139;48.114;11.442;2022-07-12T13:27:47;25.90;74.20
14122;DHT22;7139;48.114;11.442;2022-07-12T13:30:16;26.00;72.40
14122;DHT22;7139;48.114;11.442;2022-07-12T13:32:43;25.70;72.90
14122;DHT22;7139;48.114;11.442;2022-07-12T13:35:10;25.30;72.90
14122;DHT22;7139;48.114;11.442;2022-07-12T13:37:41;25.40;74.50
14122;DHT22;7139;48.114;11.442;2022-07-12T13:40:09;25.50;73.70
14122;DHT22;7139;48.114;11.442;2022-07-12T13:42:44;25.70;74.30
14122;DHT22;7139;48.114;11.442;2022-07-12T13:45:15;25.90;73.30
14122;DHT22;7139;48.114;11.442;2022-07-12T13:47:43;25.90;72.10
14122;DHT22;7139;48.114;11.442;2022-07-12T13:50:11;26.00;72.60
14122;DHT22;7139;48.114;11.442;2022-07-12T13:52:39;26.10;70.80
14122;DHT22;7139;48.114;11.442;2022-07-12T13:55:07;26.10;73.60
14122;DHT22;7139;48.114;11.442;2022-07-12T13:57:34;26.30;73.10
14122;DHT22;7139;48.114;11.442;2022-07-12T14:00:03;26.30;71.90
14122;DHT22;7139;48.114;11.442;2022-07-12T14:02:31;25.70;70.90
14122;DHT22;7139;48.114;11.442;2022-07-12T14:04:58;25.40;72.70
14122;DHT22;7139;48.114;11.442;2022-07-12T14:07:25;25.20;73.20
14122;DHT22;7139;48.114;11.442;2022-07-12T14:09:52;25.00;72.20
14122;DHT22;7139;48.114;11.442;2022-07-12T14:12:19;25.00;73.50
14122;DHT22;7139;48.114;11.442;2022-07-12T14:14:45;25.20;73.40
14122;DHT22;7139;48.114;11.442;2022-07-12T14:17:31;25.40;72.40
14122;DHT22;7139;48.114;11.442;2022-07-12T14:19:58;25.50;72.20
14122;DHT22;7139;48.114;11.442;2022-07-12T14:22:25;25.50;72.30
14122;DHT22;7139;48.114;11.442;2022-07-12T14:24:52;25.20;71.60
14122;DHT22;7139;48.114;11.442;2022-07-12T14:27:19;25.10;72.60
14122;DHT22;7139;48.114;11.442;2022-07-12T14:29:46;25.10;71.40
14122;DHT22;7139;48.114;11.442;2022-07-12T14:32:13;25.30;72.00
14122;DHT22;7139;48.114;11.442;2022-07-12T14:34:41;25.40;70.50
14122;DHT22;7139;48.114;11.442;2022-07-12T14:37:08;25.20;71.10
14122;DHT22;7139;48.114;11.442;2022-07-12T14:39:35;25.20;70.40
14122;DHT22;7139;48.114;11.442;2022-07-12T14:42:02;25.20;72.80
14122;DHT22;7139;48.114;11.442;2022-07-12T14:44:29;25.20;70.70
14122;DHT22;7139;48.114;11.442;2022-07-12T14:46:56;25.10;70.70
14122;DHT22;7139;48.114;11.442;2022-07-12T14:49:23;25.20;72.50
14122;DHT22;7139;48.114;11.442;2022-07-12T14:51:51;25.30;71.50
14122;DHT22;7139;48.114;11.442;2022-07-12T14:54:18;25.20;70.30
14122;DHT22;7139;48.114;11.442;2022-07-12T14:56:45;25.30;70.90
14122;DHT22;7139;48.114;11.442;2022-07-12T14:59:11;25.40;72.70
14122;DHT22;7139;48.114;11.442;2022-07-12T15:01:38;25.60;71.90
14122;DHT22;7139;48.114;11.442;2022-07-12T15:04:05;25.60;71.50
14122;DHT22;7139;48.114;11.442;2022-07-12T15:06:33;25.70;71.80
14122;DHT22;7139;48.114;11.442;2022-07-12T15:09:01;25.80;70.20
14122;DHT22;7139;48.114;11.442;2022-07-12T15:11:28;25.70;69.50
14122;DHT22;7139;48.114;11.442;2022-07-12T15:13:54;25.70;69.40
14122;DHT22;7139;48.114;11.442;2022-07-12T15:16:21;25.70;70.10
14122;DHT22;7139;48.114;11.442;2022-07-12T15:18:48;25.70;69.80
14122;DHT22;7139;48.114;11.442;2022-07-12T15:21:15;25.50;70.00
14122;DHT22;7139;48.114;11.442;2022-07-12T15:23:42;25.60;70.00
14122;DHT22;7139;48.114;11.442;2022-07-12T15:26:10;25.80;69.10
14122;DHT22;7139;48.114;11.442;2022-07-12T15:28:49;25.80;66.70
14122;DHT22;7139;48.114;11.442;2022-07-12T15:31:16;25.70;67.70
14122;DHT22;7139;48.114;11.442;2022-07-12T15:33:43;25.70;68.90
14122;DHT22;7139;48.114;11.442;2022-07-12T15:36:10;25.70;69.90